createdAt,value
2016-10-08T00:00:37.152Z,99.03
2016-10-08T00:01:37.486Z,99.03
2016-10-08T00:02:37.507Z,98.74
2016-10-08T00:03:37.207Z,98.65
2016-10-08T00:04:37.536Z,98.94
2016-10-08T00:05:37.553Z,98.74
2016-10-08T00:06:37.267Z,98.94
2016-10-08T00:07:37.277Z,98.74
2016-10-08T00:08:37.616Z,98.94
2016-10-08T00:09:37.636Z,98.94
2016-10-08T00:10:37.331Z,99.13
2016-10-08T00:11:37.687Z,98.94
2016-10-08T00:12:37.382Z,98.94
2016-10-08T00:13:37.394Z,98.84
2016-10-08T00:14:37.405Z,99.69
2016-10-08T00:15:37.732Z,99.22
2016-10-08T00:16:37.574Z,99.32
2016-10-08T00:17:37.776Z,99.03
2016-10-08T00:18:37.796Z,99.69
2016-10-08T00:19:37.502Z,99.79
2016-10-08T00:20:37.904Z,99.41
2016-10-08T00:21:37.841Z,99.32
2016-10-08T00:22:37.877Z,99.32
2016-10-08T00:23:37.573Z,99.98
2016-10-08T00:24:37.904Z,99.99
2016-10-08T00:25:37.976Z,99.99
2016-10-08T00:26:37.944Z,99.65
2016-10-08T00:27:37.655Z,99.99
2016-10-08T00:28:37.987Z,99.74
2016-10-08T00:29:37.997Z,99.98
2016-10-08T00:30:38.009Z,99.99
2016-10-08T00:31:37.729Z,99.74
2016-10-08T00:32:38.040Z,99.6
2016-10-08T00:33:38.065Z,99.93
2016-10-08T00:34:37.764Z,99.99
2016-10-08T00:35:38.105Z,99.99
2016-10-08T00:36:38.217Z,99.65
2016-10-08T00:37:37.856Z,99.99
2016-10-08T00:38:38.175Z,99.99
2016-10-08T00:39:38.178Z,99.99
2016-10-08T00:40:37.888Z,99.89
2016-10-08T00:41:37.906Z,99.99
2016-10-08T00:42:38.227Z,99.99
2016-10-08T00:43:37.947Z,99.99
2016-10-08T00:44:38.274Z,99.99
2016-10-08T00:45:38.287Z,99.99
2016-10-08T00:46:37.995Z,99.99
2016-10-08T00:47:38.326Z,99.99
2016-10-08T00:48:38.033Z,99.99
2016-10-08T00:49:38.366Z,99.99
2016-10-08T00:50:38.408Z,99.99
2016-10-08T00:51:38.079Z,99.99
2016-10-08T00:52:38.106Z,99.99
2016-10-08T00:53:38.120Z,99.99
2016-10-08T00:54:38.137Z,99.99
2016-10-08T00:55:38.305Z,99.99
2016-10-08T00:56:38.491Z,99.99
2016-10-08T00:57:38.503Z,99.99
2016-10-08T00:58:38.541Z,99.99
2016-10-08T00:59:38.545Z,99.99
2016-10-08T01:00:38.567Z,99.99
2016-10-08T01:01:38.277Z,99.99
2016-10-08T01:02:38.597Z,99.99
2016-10-08T01:03:38.353Z,99.99
2016-10-08T01:04:38.637Z,99.99
2016-10-08T01:05:38.656Z,99.99
2016-10-08T01:06:38.675Z,99.99
2016-10-08T01:07:38.685Z,99.99
2016-10-08T01:08:38.704Z,99.99
2016-10-08T01:09:38.725Z,99.99
2016-10-08T01:10:38.496Z,99.99
2016-10-08T01:11:38.758Z,99.99
2016-10-08T01:12:38.505Z,99.99
2016-10-08T01:13:38.501Z,99.99
2016-10-08T01:14:38.839Z,99.99
2016-10-08T01:15:38.834Z,99.99
2016-10-08T01:16:38.853Z,99.99
2016-10-08T01:17:38.875Z,99.99
2016-10-08T01:18:38.898Z,99.99
2016-10-08T01:19:38.896Z,99.99
2016-10-08T01:20:38.917Z,99.99
2016-10-08T01:21:38.934Z,99.99
2016-10-08T01:22:38.952Z,99.99
2016-10-08T01:23:38.978Z,99.99
2016-10-08T01:24:38.996Z,99.99
2016-10-08T01:25:39.016Z,99.99
2016-10-08T01:26:39.025Z,99.99
2016-10-08T01:27:39.045Z,99.99
2016-10-08T01:28:39.085Z,99.99
2016-10-08T01:29:39.087Z,99.99
2016-10-08T01:30:39.104Z,99.99
2016-10-08T01:31:39.131Z,99.99
2016-10-08T01:32:39.144Z,99.99
2016-10-08T01:33:39.165Z,99.99
2016-10-08T01:34:39.176Z,99.99
2016-10-08T01:35:39.186Z,99.99
2016-10-08T01:36:39.218Z,99.99
2016-10-08T01:37:39.226Z,99.99
2016-10-08T01:38:39.245Z,99.99
2016-10-08T01:39:39.271Z,99.99
2016-10-08T01:40:39.287Z,99.99
2016-10-08T01:41:38.997Z,99.99
2016-10-08T01:42:39.322Z,99.99
2016-10-08T01:43:39.336Z,99.99
2016-10-08T01:44:39.352Z,99.99
2016-10-08T01:45:39.378Z,99.99
2016-10-08T01:46:39.397Z,99.99
2016-10-08T01:47:39.415Z,99.99
2016-10-08T01:48:39.437Z,99.99
2016-10-08T01:49:39.437Z,99.99
2016-10-08T01:50:39.335Z,99.99
2016-10-08T01:51:39.507Z,99.99
2016-10-08T01:52:39.498Z,99.99
2016-10-08T01:53:39.536Z,99.99
2016-10-08T01:54:39.592Z,99.99
2016-10-08T01:55:39.555Z,99.99
2016-10-08T01:56:39.267Z,99.99
2016-10-08T01:57:39.595Z,99.99
2016-10-08T01:58:39.619Z,99.99
2016-10-08T01:59:39.316Z,99.99
2016-10-08T02:00:39.637Z,99.99
2016-10-08T02:01:39.346Z,99.99
2016-10-08T02:02:39.672Z,99.99
2016-10-08T02:03:39.683Z,99.99
2016-10-08T02:04:39.716Z,99.99
2016-10-08T02:05:39.723Z,99.99
2016-10-08T02:06:39.435Z,99.99
2016-10-08T02:07:39.816Z,99.99
2016-10-08T02:08:39.778Z,99.99
2016-10-08T02:09:39.806Z,99.99
2016-10-08T02:10:39.818Z,99.99
2016-10-08T02:11:39.856Z,99.99
2016-10-08T02:12:39.856Z,99.99
2016-10-08T02:13:39.877Z,99.99
2016-10-08T02:14:39.882Z,99.99
2016-10-08T02:15:39.902Z,99.99
2016-10-08T02:16:39.925Z,99.99
2016-10-08T02:17:39.648Z,99.99
2016-10-08T02:18:39.964Z,99.99
2016-10-08T02:19:39.971Z,99.99
2016-10-08T02:20:40.007Z,99.99
2016-10-08T02:21:40.096Z,99.99
2016-10-08T02:22:39.714Z,99.99
2016-10-08T02:23:40.037Z,99.99
2016-10-08T02:24:40.096Z,99.99
2016-10-08T02:25:40.075Z,99.99
2016-10-08T02:26:40.096Z,99.99
2016-10-08T02:27:40.115Z,99.99
2016-10-08T02:28:40.115Z,99.99
2016-10-08T02:29:39.835Z,99.99
2016-10-08T02:30:40.155Z,99.99
2016-10-08T02:31:39.857Z,99.99
2016-10-08T02:32:39.984Z,99.99
2016-10-08T02:33:40.211Z,99.92
2016-10-08T02:34:40.234Z,99.92
2016-10-08T02:35:40.237Z,99.92
2016-10-08T02:36:40.260Z,99.64
2016-10-08T02:37:39.965Z,99.35
2016-10-08T02:38:40.291Z,99.16
2016-10-08T02:39:40.339Z,98.88
2016-10-08T02:40:40.349Z,99.16
2016-10-08T02:41:40.343Z,99.07
2016-10-08T02:42:40.365Z,99.26
2016-10-08T02:43:40.373Z,98.79
2016-10-08T02:44:40.395Z,98.97
2016-10-08T02:45:40.414Z,99.16
2016-10-08T02:46:40.437Z,98.59
2016-10-08T02:47:40.439Z,98.79
2016-10-08T02:48:40.463Z,98.69
2016-10-08T02:49:40.584Z,98.31
2016-10-08T02:50:40.536Z,98.31
2016-10-08T02:51:40.517Z,98.21
2016-10-08T02:52:40.234Z,98.21
2016-10-08T02:53:40.544Z,98.31
2016-10-08T02:54:40.578Z,98.07
2016-10-08T02:55:40.568Z,97.5
2016-10-08T02:56:40.399Z,97.5
2016-10-08T02:57:40.305Z,97.6
2016-10-08T02:58:40.639Z,97.6
2016-10-08T02:59:40.640Z,97.31
2016-10-08T03:00:40.740Z,97.78
2016-10-08T03:01:40.682Z,97.78
2016-10-08T03:02:40.392Z,97.69
2016-10-08T03:03:40.402Z,97.88
2016-10-08T03:04:40.779Z,97.5
2016-10-08T03:05:40.746Z,97.6
2016-10-08T03:06:40.451Z,97.55
2016-10-08T03:07:40.769Z,97.5
2016-10-08T03:08:40.795Z,97.45
2016-10-08T03:09:40.501Z,97.64
2016-10-08T03:10:40.820Z,97.64
2016-10-08T03:11:40.844Z,97.55
2016-10-08T03:12:40.865Z,97.83
2016-10-08T03:13:40.903Z,97.64
2016-10-08T03:14:40.905Z,97.17
2016-10-08T03:15:40.603Z,97.26
2016-10-08T03:16:40.623Z,96.97
2016-10-08T03:17:41.005Z,97.64
2016-10-08T03:18:40.957Z,97.26
2016-10-08T03:19:40.972Z,97.45
2016-10-08T03:20:40.995Z,97.45
2016-10-08T03:21:40.700Z,97.36
2016-10-08T03:22:41.021Z,96.78
2016-10-08T03:23:40.741Z,97.5
2016-10-08T03:24:41.065Z,97.26
2016-10-08T03:25:41.077Z,97.26
2016-10-08T03:26:41.085Z,97.07
2016-10-08T03:27:41.114Z,96.92
2016-10-08T03:28:40.813Z,96.78
2016-10-08T03:29:41.141Z,96.78
2016-10-08T03:30:41.162Z,96.36
2016-10-08T03:31:40.864Z,96.55
2016-10-08T03:32:41.192Z,95.88
2016-10-08T03:33:40.898Z,95.88
2016-10-08T03:34:40.910Z,95.98
2016-10-08T03:35:41.239Z,95.98
2016-10-08T03:36:41.252Z,95.98
2016-10-08T03:37:41.270Z,95.79
2016-10-08T03:38:41.289Z,95.41
2016-10-08T03:39:41.310Z,95.41
2016-10-08T03:40:41.312Z,95.69
2016-10-08T03:41:41.335Z,95.5
2016-10-08T03:42:41.351Z,95.41
2016-10-08T03:43:41.056Z,95.41
2016-10-08T03:44:41.069Z,95.5
2016-10-08T03:45:41.396Z,95.74
2016-10-08T03:46:41.120Z,95.65
2016-10-08T03:47:41.430Z,95.36
2016-10-08T03:48:41.443Z,95.6
2016-10-08T03:49:41.452Z,95.84
2016-10-08T03:50:41.465Z,94.98
2016-10-08T03:51:41.492Z,95.41
2016-10-08T03:52:41.202Z,94.13
2016-10-08T03:53:41.522Z,93.13
2016-10-08T03:54:41.227Z,91.33
2016-10-08T03:55:41.566Z,91.14
2016-10-08T03:56:41.571Z,90.76
2016-10-08T03:57:41.626Z,90.29
2016-10-08T03:58:41.301Z,90.19
2016-10-08T03:59:41.702Z,89.62
2016-10-08T04:00:41.640Z,89.72
2016-10-08T04:01:41.658Z,89.43
2016-10-08T04:02:41.554Z,89.06
2016-10-08T04:03:41.689Z,88.24
2016-10-08T04:04:41.390Z,88.01
2016-10-08T04:05:41.721Z,86.97
2016-10-08T04:06:41.732Z,85.68
2016-10-08T04:07:41.740Z,85.21
2016-10-08T04:08:41.442Z,84.83
2016-10-08T04:09:41.778Z,84.36
2016-10-08T04:10:41.486Z,84.17
2016-10-08T04:11:41.799Z,83.88
2016-10-08T04:12:41.841Z,83.78
2016-10-08T04:13:41.832Z,83.59
2016-10-08T04:14:41.545Z,83.5
2016-10-08T04:15:41.868Z,83.59
2016-10-08T04:16:41.889Z,82.84
2016-10-08T04:17:41.598Z,82.93
2016-10-08T04:18:41.919Z,82.74
2016-10-08T04:19:41.628Z,82.74
2016-10-08T04:20:41.955Z,82.74
2016-10-08T04:21:41.958Z,82.65
2016-10-08T04:22:42.118Z,82.84
2016-10-08T04:23:42.073Z,82.93
2016-10-08T04:24:42.017Z,82.74
2016-10-08T04:25:41.718Z,82.84
2016-10-08T04:26:42.038Z,82.93
2016-10-08T04:27:42.153Z,82.65
2016-10-08T04:28:42.097Z,82.69
2016-10-08T04:29:41.783Z,82.69
2016-10-08T04:30:41.791Z,82.97
2016-10-08T04:31:42.121Z,82.78
2016-10-08T04:32:42.144Z,82.78
2016-10-08T04:33:42.167Z,82.12
2016-10-08T04:34:42.176Z,82.4
2016-10-08T04:35:41.885Z,82.59
2016-10-08T04:36:41.900Z,82.12
2016-10-08T04:37:42.349Z,82.21
2016-10-08T04:38:42.247Z,82.21
2016-10-08T04:39:41.994Z,82.31
2016-10-08T04:40:42.313Z,82.03
2016-10-08T04:41:42.282Z,82.31
2016-10-08T04:42:42.307Z,82.4
2016-10-08T04:43:42.323Z,82.21
2016-10-08T04:44:42.369Z,82.12
2016-10-08T04:45:42.358Z,82.17
2016-10-08T04:46:42.367Z,82.27
2016-10-08T04:47:42.089Z,81.98
2016-10-08T04:48:42.388Z,82.55
2016-10-08T04:49:42.116Z,82.36
2016-10-08T04:50:42.448Z,82.46
2016-10-08T04:51:42.470Z,82.55
2016-10-08T04:52:42.465Z,82.08
2016-10-08T04:53:42.478Z,82.17
2016-10-08T04:54:42.193Z,82.36
2016-10-08T04:55:42.518Z,82.74
2016-10-08T04:56:42.227Z,82.74
2016-10-08T04:57:42.589Z,83.22
2016-10-08T04:58:42.563Z,83.03
2016-10-08T04:59:42.275Z,82.79
2016-10-08T05:00:42.599Z,82.89
2016-10-08T05:01:42.624Z,83.5
2016-10-08T05:02:42.629Z,83.36
2016-10-08T05:03:42.650Z,83.65
2016-10-08T05:04:42.666Z,83.46
2016-10-08T05:05:42.368Z,83.55
2016-10-08T05:06:42.698Z,84.03
2016-10-08T05:07:42.456Z,84.03
2016-10-08T05:08:42.410Z,84.12
2016-10-08T05:09:42.432Z,83.65
2016-10-08T05:10:42.442Z,83.55
2016-10-08T05:11:42.776Z,83.65
2016-10-08T05:12:42.480Z,84.12
2016-10-08T05:13:42.488Z,84.03
2016-10-08T05:14:42.828Z,83.89
2016-10-08T05:15:42.841Z,84.08
2016-10-08T05:16:42.548Z,83.61
2016-10-08T05:17:42.866Z,83.8
2016-10-08T05:18:42.891Z,83.98
2016-10-08T05:19:42.594Z,83.8
2016-10-08T05:20:42.968Z,83.51
2016-10-08T05:21:42.942Z,84.17
2016-10-08T05:22:42.946Z,83.42
2016-10-08T05:23:42.963Z,83.89
2016-10-08T05:24:43.001Z,83.51
2016-10-08T05:25:42.996Z,83.51
2016-10-08T05:26:43.011Z,83.32
2016-10-08T05:27:43.028Z,83.42
2016-10-08T05:28:43.060Z,83.51
2016-10-08T05:29:43.071Z,83.42
2016-10-08T05:30:43.080Z,83.32
2016-10-08T05:31:42.795Z,82.85
2016-10-08T05:32:42.797Z,82.66
2016-10-08T05:33:42.813Z,82.75
2016-10-08T05:34:43.142Z,82.85
2016-10-08T05:35:43.155Z,82.85
2016-10-08T05:36:42.865Z,82.94
2016-10-08T05:37:42.880Z,82.56
2016-10-08T05:38:43.214Z,82.56
2016-10-08T05:39:43.223Z,82.28
2016-10-08T05:40:43.229Z,82.85
2016-10-08T05:41:43.252Z,82.09
2016-10-08T05:42:43.275Z,82.09
2016-10-08T05:43:42.965Z,82.56
2016-10-08T05:44:42.988Z,82.37
2016-10-08T05:45:43.319Z,82.18
2016-10-08T05:46:43.320Z,82.18
2016-10-08T05:47:43.035Z,82.18
2016-10-08T05:48:43.365Z,82.47
2016-10-08T05:49:43.384Z,82.47
2016-10-08T05:50:43.405Z,82.47
2016-10-08T05:51:43.093Z,82.28
2016-10-08T05:52:43.103Z,81.9
2016-10-08T05:53:43.124Z,81.99
2016-10-08T05:54:43.450Z,82.28
2016-10-08T05:55:43.473Z,81.99
2016-10-08T05:56:43.495Z,82.28
2016-10-08T05:57:43.188Z,82.28
2016-10-08T05:58:43.211Z,81.99
2016-10-08T05:59:43.227Z,82.18
2016-10-08T06:00:43.555Z,82.09
2016-10-08T06:01:43.255Z,81.99
2016-10-08T06:02:43.586Z,82.18
2016-10-08T06:03:43.613Z,81.99
2016-10-08T06:04:43.623Z,82.09
2016-10-08T06:05:43.634Z,81.9
2016-10-08T06:06:43.341Z,82.09
2016-10-08T06:07:43.665Z,82.28
2016-10-08T06:08:43.676Z,82.28
2016-10-08T06:09:43.695Z,82.37
2016-10-08T06:10:43.707Z,82.18
2016-10-08T06:11:43.725Z,81.52
2016-10-08T06:12:43.743Z,81.62
2016-10-08T06:13:43.755Z,81.81
2016-10-08T06:14:43.460Z,81.71
2016-10-08T06:15:43.831Z,81.71
2016-10-08T06:16:43.821Z,82.09
2016-10-08T06:17:45.447Z,82.13
2016-10-08T06:18:43.828Z,81.75
2016-10-08T06:19:43.877Z,81.94
2016-10-08T06:20:43.860Z,81.56
2016-10-08T06:21:43.886Z,81.09
2016-10-08T06:22:43.915Z,80.84
2016-10-08T06:23:43.918Z,80.03
2016-10-08T06:24:43.623Z,80.03
2016-10-08T06:25:43.947Z,80.32
2016-10-08T06:26:43.973Z,80.69
2016-10-08T06:27:45.979Z,80.79
2016-10-08T06:28:44.167Z,81.36
2016-10-08T06:29:44.116Z,81.55
2016-10-08T06:30:43.716Z,82.12
2016-10-08T06:31:44.036Z,82.78
2016-10-08T06:32:44.067Z,83.07
2016-10-08T06:33:44.073Z,83.16
2016-10-08T06:34:44.347Z,82.97
2016-10-08T06:35:44.109Z,83.2
2016-10-08T06:36:44.379Z,83.11
2016-10-08T06:37:44.343Z,81.87
2016-10-08T06:38:44.447Z,81.59
2016-10-08T06:39:44.328Z,80.58
2016-10-08T06:40:44.488Z,79.58
2016-10-08T06:41:44.420Z,80.23
2016-10-08T06:42:44.477Z,85.32
2016-10-08T06:43:44.025Z,91.27
2016-10-08T06:44:44.715Z,93.08
2016-10-08T06:45:44.470Z,95.17
2016-10-08T06:46:44.543Z,95.98
2016-10-08T06:47:44.406Z,95.61
2016-10-08T06:48:44.588Z,95.41
2016-10-08T06:49:44.337Z,94.37
2016-10-08T06:50:44.559Z,95.03
2016-10-08T06:51:44.059Z,95.89
2016-10-08T06:52:44.667Z,96.46
2016-10-08T06:53:44.417Z,95.56
2016-10-08T06:54:44.425Z,93.88
2016-10-08T06:55:44.551Z,91.93
2016-10-08T06:56:44.466Z,89.49
2016-10-08T06:57:44.683Z,86.71
2016-10-08T06:58:44.534Z,83.6
2016-10-08T06:59:44.636Z,81.15
2016-10-08T07:00:44.238Z,77.42
2016-10-08T07:01:44.767Z,76.69
2016-10-08T07:02:44.271Z,77.17
2016-10-08T07:03:44.647Z,76.18
2016-10-08T07:04:44.305Z,76.02
2016-10-08T07:05:44.834Z,75.35
2016-10-08T07:06:44.646Z,75.35
2016-10-08T07:07:44.674Z,74.77
2016-10-08T07:08:44.695Z,74.01
2016-10-08T07:09:44.726Z,74.4
2016-10-08T07:10:44.916Z,74.01
2016-10-08T07:11:44.746Z,74.33
2016-10-08T07:12:44.816Z,74.77
2016-10-08T07:13:44.782Z,76.18
2016-10-08T07:14:44.813Z,78.24
2016-10-08T07:15:44.834Z,81.07
2016-10-08T07:16:44.844Z,83.67
2016-10-08T07:17:44.854Z,85.34
2016-10-08T07:18:44.884Z,87.78
2016-10-08T07:19:44.906Z,88.88
2016-10-08T07:20:44.925Z,89.93
2016-10-08T07:21:44.971Z,90.93
2016-10-08T07:22:44.646Z,91.31
2016-10-08T07:23:44.995Z,92.65
2016-10-08T07:24:44.995Z,93.37
2016-10-08T07:25:44.714Z,93.65
2016-10-08T07:26:45.044Z,94.41
2016-10-08T07:27:45.054Z,94.7
2016-10-08T07:28:45.070Z,94.51
2016-10-08T07:29:45.107Z,95.08
2016-10-08T07:30:45.114Z,95.51
2016-10-08T07:31:45.133Z,96.27
2016-10-08T07:32:44.832Z,96.84
2016-10-08T07:33:45.158Z,97.51
2016-10-08T07:34:44.874Z,97.41
2016-10-08T07:35:45.404Z,97.51
2016-10-08T07:36:44.922Z,97.7
2016-10-08T07:37:45.238Z,97.31
2016-10-08T07:38:45.257Z,97.99
2016-10-08T07:39:45.302Z,97.7
2016-10-08T07:40:45.312Z,97.22
2016-10-08T07:41:45.316Z,97.13
2016-10-08T07:42:45.352Z,95.89
2016-10-08T07:43:45.357Z,95.75
2016-10-08T07:44:45.378Z,95.75
2016-10-08T07:45:45.390Z,95.36
2016-10-08T07:46:45.467Z,95.36
2016-10-08T07:47:45.433Z,95.84
2016-10-08T07:48:45.446Z,95.94
2016-10-08T07:49:45.480Z,95.65
2016-10-08T07:50:45.480Z,95.56
2016-10-08T07:51:45.520Z,95.36
2016-10-08T07:52:45.526Z,95.56
2016-10-08T07:53:45.536Z,95.36
2016-10-08T07:54:45.551Z,95.08
2016-10-08T07:55:45.569Z,94.7
2016-10-08T07:56:45.751Z,94.7
2016-10-08T07:57:45.306Z,94.37
2016-10-08T07:58:45.642Z,93.7
2016-10-08T07:59:45.657Z,94.17
2016-10-08T08:00:45.678Z,92.93
2016-10-08T08:01:45.909Z,94.17
2016-10-08T08:02:45.718Z,94.74
2016-10-08T08:03:45.723Z,94.56
2016-10-08T08:04:45.756Z,94.37
2016-10-08T08:05:45.455Z,94.79
2016-10-08T08:06:45.797Z,95.08
2016-10-08T08:07:45.511Z,95.56
2016-10-08T08:08:46.063Z,95.17
2016-10-08T08:09:45.538Z,95.56
2016-10-08T08:10:45.807Z,95.75
2016-10-08T08:11:46.307Z,96.22
2016-10-08T08:12:46.553Z,95.94
2016-10-08T08:13:45.928Z,96.7
2016-10-08T08:14:46.047Z,96.6
2016-10-08T08:15:46.621Z,96.55
2016-10-08T08:16:46.371Z,96.8
2016-10-08T08:17:45.996Z,96.8
2016-10-08T08:18:46.654Z,96.75
2016-10-08T08:19:46.043Z,96.7
2016-10-08T08:20:46.551Z,96.03
2016-10-08T08:21:46.372Z,96.12
2016-10-08T08:22:46.077Z,95.75
2016-10-08T08:23:46.234Z,95.36
2016-10-08T08:24:46.233Z,95.61
2016-10-08T08:25:45.840Z,94.84
2016-10-08T08:26:46.242Z,95.41
2016-10-08T08:27:46.972Z,95.61
2016-10-08T08:28:46.575Z,94.65
2016-10-08T08:29:46.333Z,95.03
2016-10-08T08:30:46.035Z,94.37
2016-10-08T08:31:46.208Z,93.6
2016-10-08T08:32:46.296Z,93.6
2016-10-08T08:33:46.687Z,93.88
2016-10-08T08:34:46.683Z,93.51
2016-10-08T08:35:47.078Z,93.74
2016-10-08T08:36:46.627Z,92.98
2016-10-08T08:37:46.529Z,93.55
2016-10-08T08:38:46.426Z,93.6
2016-10-08T08:39:46.104Z,94.27
2016-10-08T08:40:46.467Z,94.17
2016-10-08T08:41:46.503Z,93.74
2016-10-08T08:42:46.545Z,92.69
2016-10-08T08:43:46.500Z,92.79
2016-10-08T08:44:46.529Z,92.69
2016-10-08T08:45:46.530Z,92.41
2016-10-08T08:46:46.560Z,92.12
2016-10-08T08:47:46.586Z,92.03
2016-10-08T08:48:46.597Z,92.32
2016-10-08T08:49:46.595Z,92.12
2016-10-08T08:50:46.778Z,92.03
2016-10-08T08:51:46.648Z,91.83
2016-10-08T08:52:46.690Z,91.69
2016-10-08T08:53:46.688Z,91.12
2016-10-08T08:54:46.406Z,91.02
2016-10-08T08:55:46.728Z,91.02
2016-10-08T08:56:46.749Z,90.93
2016-10-08T08:57:46.766Z,90.26
2016-10-08T08:58:46.488Z,91.31
2016-10-08T08:59:46.829Z,90.73
2016-10-08T09:00:46.839Z,90.17
2016-10-08T09:01:46.847Z,89.92
2016-10-08T09:02:46.567Z,90.11
2016-10-08T09:03:46.581Z,89.92
2016-10-08T09:04:46.903Z,89.83
2016-10-08T09:05:46.959Z,89.54
2016-10-08T09:06:46.960Z,89.78
2016-10-08T09:07:46.664Z,89.97
2016-10-08T09:08:46.996Z,90.36
2016-10-08T09:09:47.030Z,91.02
2016-10-08T09:10:47.029Z,90.36
2016-10-08T09:11:47.059Z,90.36
2016-10-08T09:12:47.066Z,89.97
2016-10-08T09:13:46.788Z,90.64
2016-10-08T09:14:46.969Z,90.07
2016-10-08T09:15:47.135Z,89.69
2016-10-08T09:16:46.859Z,89.45
2016-10-08T09:17:47.179Z,88.78
2016-10-08T09:18:47.197Z,88.59
2016-10-08T09:19:47.207Z,87.92
2016-10-08T09:20:47.240Z,87.44
2016-10-08T09:21:47.264Z,87.25
2016-10-08T09:22:47.277Z,87.15
2016-10-08T09:23:47.297Z,87.06
2016-10-08T09:24:47.318Z,87.63
2016-10-08T09:25:47.326Z,87.54
2016-10-08T09:26:47.358Z,87.54
2016-10-08T09:27:47.393Z,87.92
2016-10-08T09:28:47.408Z,87.82
2016-10-08T09:29:47.421Z,87.82
2016-10-08T09:30:47.130Z,87.35
2016-10-08T09:31:47.471Z,88.16
2016-10-08T09:32:47.492Z,88.54
2016-10-08T09:33:47.612Z,88.73
2016-10-08T09:34:48.592Z,88.35
2016-10-08T09:35:47.733Z,89.12
2016-10-08T09:36:48.615Z,89.12
2016-10-08T09:37:48.066Z,89.31
2016-10-08T09:38:48.700Z,88.64
2016-10-08T09:39:48.396Z,89.21
2016-10-08T09:40:47.683Z,88.92
2016-10-08T09:41:48.537Z,88.54
2016-10-08T09:42:47.954Z,88.54
2016-10-08T09:43:47.985Z,88.2
2016-10-08T09:44:47.697Z,87.63
2016-10-08T09:45:47.996Z,86.77
2016-10-08T09:46:47.523Z,85.77
2016-10-08T09:47:47.924Z,85.19
2016-10-08T09:48:47.782Z,84.91
2016-10-08T09:49:47.630Z,82.32
2016-10-08T09:50:48.173Z,80.9
2016-10-08T09:51:47.894Z,80.8
2016-10-08T09:52:48.357Z,79.79
2016-10-08T09:53:47.619Z,78.93
2016-10-08T09:54:47.656Z,77.78
2016-10-08T09:55:47.973Z,77.69
2016-10-08T09:56:47.986Z,77.69
2016-10-08T09:57:48.131Z,77.94
2016-10-08T09:58:48.053Z,78.83
2016-10-08T09:59:48.117Z,79.02
2016-10-08T10:00:48.074Z,79.12
2016-10-08T10:01:48.253Z,78.93
2016-10-08T10:02:48.203Z,78.26
2016-10-08T10:03:48.473Z,78.64
2016-10-08T10:04:48.243Z,79.22
2016-10-08T10:05:48.795Z,79.85
2016-10-08T10:06:48.511Z,80.32
2016-10-08T10:07:48.379Z,80.9
2016-10-08T10:08:48.258Z,81.47
2016-10-08T10:09:48.438Z,82.76
2016-10-08T10:10:48.148Z,83.62
2016-10-08T10:11:48.683Z,83.34
2016-10-08T10:12:48.628Z,82.67
2016-10-08T10:13:48.142Z,83.53
2016-10-08T10:14:48.384Z,83.43
2016-10-08T10:15:48.505Z,84.39
2016-10-08T10:16:48.420Z,84.92
2016-10-08T10:17:48.205Z,85.77
2016-10-08T10:18:48.143Z,86.54
2016-10-08T10:19:48.271Z,87.21
2016-10-08T10:20:48.182Z,87.78
2016-10-08T10:21:48.520Z,87.87
2016-10-08T10:22:48.228Z,87.87
2016-10-08T10:23:48.244Z,88.5
2016-10-08T10:24:48.576Z,88.69
2016-10-08T10:25:48.292Z,88.69
2016-10-08T10:26:48.617Z,88.5
2016-10-08T10:27:48.655Z,88.35
2016-10-08T10:28:48.742Z,88.45
2016-10-08T10:29:48.693Z,88.45
2016-10-08T10:30:48.797Z,88.54
2016-10-08T10:31:48.725Z,88.54
2016-10-08T10:32:48.759Z,88.16
2016-10-08T10:33:48.758Z,88.07
2016-10-08T10:34:48.791Z,87.59
2016-10-08T10:35:48.494Z,87.4
2016-10-08T10:36:48.823Z,87.21
2016-10-08T10:37:48.840Z,87.02
2016-10-08T10:38:48.868Z,87.11
2016-10-08T10:39:48.880Z,86.68
2016-10-08T10:40:48.907Z,86.39
2016-10-08T10:41:48.978Z,86.58
2016-10-08T10:42:48.625Z,86.1
2016-10-08T10:43:48.974Z,86.2
2016-10-08T10:44:48.995Z,86.49
2016-10-08T10:45:49.012Z,85.72
2016-10-08T10:46:49.038Z,85.91
2016-10-08T10:47:49.056Z,86.2
2016-10-08T10:48:49.077Z,86.3
2016-10-08T10:49:49.095Z,85.91
2016-10-08T10:50:49.117Z,86.01
2016-10-08T10:51:49.149Z,85.44
2016-10-08T10:52:48.840Z,85.25
2016-10-08T10:53:49.166Z,86.01
2016-10-08T10:54:49.617Z,86.1
2016-10-08T10:55:49.247Z,85.34
2016-10-08T10:56:49.238Z,85.15
2016-10-08T10:57:49.279Z,85.15
2016-10-08T10:58:49.292Z,85.72
2016-10-08T10:59:49.314Z,85.63
2016-10-08T11:00:49.333Z,85.72
2016-10-08T11:01:49.348Z,85.72
2016-10-08T11:02:49.367Z,86.58
2016-10-08T11:03:49.389Z,86.77
2016-10-08T11:04:49.409Z,86.01
2016-10-08T11:05:49.113Z,84.81
2016-10-08T11:06:49.446Z,84.43
2016-10-08T11:07:49.468Z,84.72
2016-10-08T11:08:49.488Z,83.72
2016-10-08T11:09:49.222Z,83.86
2016-10-08T11:10:49.549Z,83.57
2016-10-08T11:11:49.557Z,82.9
2016-10-08T11:12:49.579Z,81.99
2016-10-08T11:13:49.619Z,82.18
2016-10-08T11:14:49.626Z,81.32
2016-10-08T11:15:49.711Z,81.6
2016-10-08T11:16:49.704Z,81.79
2016-10-08T11:17:49.681Z,81.79
2016-10-08T11:18:49.711Z,80.88
2016-10-08T11:19:49.764Z,79.54
2016-10-08T11:20:49.784Z,79.25
2016-10-08T11:21:49.967Z,78.2
2016-10-08T11:22:49.792Z,77.92
2016-10-08T11:23:49.822Z,78.78
2016-10-08T11:24:49.520Z,78.68
2016-10-08T11:25:49.874Z,78.97
2016-10-08T11:26:49.571Z,79.88
2016-10-08T11:27:49.901Z,79.35
2016-10-08T11:28:49.923Z,79.31
2016-10-08T11:29:49.941Z,79.41
2016-10-08T11:30:50.520Z,79.02
2016-10-08T11:31:50.982Z,79.12
2016-10-08T11:32:50.623Z,79.69
2016-10-08T11:33:51.576Z,80.8
2016-10-08T11:34:50.624Z,81.18
2016-10-08T11:35:50.367Z,81.27
2016-10-08T11:36:51.272Z,81.66
2016-10-08T11:37:50.975Z,81.32
2016-10-08T11:38:51.213Z,80.74
2016-10-08T11:39:51.085Z,81.7
2016-10-08T11:40:50.254Z,81.37
2016-10-08T11:41:49.927Z,81.6
2016-10-08T11:42:51.401Z,81.22
2016-10-08T11:43:51.310Z,80.98
2016-10-08T11:44:50.885Z,82.03
2016-10-08T11:45:51.293Z,82.12
2016-10-08T11:46:50.890Z,83.42
2016-10-08T11:47:51.135Z,83.13
2016-10-08T11:48:51.381Z,82.28
2016-10-08T11:49:50.745Z,82.37
2016-10-08T11:50:50.713Z,82.94
2016-10-08T11:51:51.011Z,83.23
2016-10-08T11:52:50.927Z,82.56
2016-10-08T11:53:51.311Z,81.32
2016-10-08T11:54:51.809Z,82.08
2016-10-08T11:55:52.046Z,83.33
2016-10-08T11:56:52.172Z,83.47
2016-10-08T11:57:50.338Z,83.67
2016-10-08T11:58:51.275Z,83.38
2016-10-08T11:59:50.636Z,83.67
2016-10-08T12:00:51.627Z,83.57
2016-10-08T12:01:51.773Z,83.47
2016-10-08T12:02:52.675Z,83.57
2016-10-08T12:03:52.331Z,84.23
2016-10-08T12:04:51.720Z,83.95
2016-10-08T12:05:52.087Z,83.57
2016-10-08T12:06:51.690Z,83.95
2016-10-08T12:07:51.857Z,83.76
2016-10-08T12:08:52.110Z,83.86
2016-10-08T12:09:51.540Z,83.81
2016-10-08T12:10:51.268Z,84.58
2016-10-08T12:11:52.239Z,84.39
2016-10-08T12:12:51.353Z,84.43
2016-10-08T12:13:51.322Z,84.23
2016-10-08T12:14:51.986Z,84.14
2016-10-08T12:15:51.839Z,83.13
2016-10-08T12:16:52.276Z,82.37
2016-10-08T12:17:52.403Z,81.22
2016-10-08T12:18:51.730Z,80.74
2016-10-08T12:19:52.911Z,79.41
2016-10-08T12:20:51.867Z,80.07
2016-10-08T12:21:51.062Z,80.8
2016-10-08T12:22:51.827Z,81.13
2016-10-08T12:23:51.838Z,81.76
2016-10-08T12:24:51.626Z,81.79
2016-10-08T12:25:51.567Z,80.07
2016-10-08T12:26:51.198Z,79.5
2016-10-08T12:27:52.147Z,79.02
2016-10-08T12:28:52.273Z,78.78
2016-10-08T12:29:52.921Z,79.35
2016-10-08T12:30:52.718Z,79.35
2016-10-08T12:31:52.624Z,79.93
2016-10-08T12:32:52.457Z,81.22
2016-10-08T12:33:51.858Z,81.51
2016-10-08T12:34:52.101Z,80.74
2016-10-08T12:35:52.214Z,80.27
2016-10-08T12:36:52.664Z,81.13
2016-10-08T12:37:52.962Z,80.93
2016-10-08T12:38:51.371Z,80.8
2016-10-08T12:39:52.311Z,81.09
2016-10-08T12:40:52.524Z,80.17
2016-10-08T12:41:51.721Z,79.5
2016-10-08T12:42:51.710Z,79.41
2016-10-08T12:43:51.735Z,79.98
2016-10-08T12:44:52.620Z,80.07
2016-10-08T12:45:52.923Z,80.07
2016-10-08T12:46:52.256Z,80.9
2016-10-08T12:47:52.386Z,81.47
2016-10-08T12:48:51.860Z,81.85
2016-10-08T12:49:51.972Z,81.09
2016-10-08T12:50:52.664Z,80.17
2016-10-08T12:51:52.342Z,79.79
2016-10-08T12:52:51.823Z,79.75
2016-10-08T12:53:53.133Z,79.75
2016-10-08T12:54:52.472Z,80.51